Terminal Aerodrome Forecast
Issued by NWS

Home | Current Version | Previous Version | Text Only | Print | Product List | Glossary On
Versions: 1 2 3 4 5 6 7 8 9 10 11 12 13 14 15 16 17
662
FTUS43 KIND 272129 AAA
TAFBMG
TAF AMD
KBMG 272129Z 2721/2818 14007KT P6SM VCTS SCT025CB OVC035
      TEMPO 2722/2724 4SM -TSRA BR OVC025CB
     FM280000 15005KT 6SM -SHRA VCTS OVC035CB
     FM280400 VRB03KT 5SM SHRA BR VCTS BKN015CB
     FM280600 VRB03KT 4SM BR VCSH BKN010
     FM280900 VRB03KT 4SM BR BKN008
     FM281500 36006KT P6SM BKN008=

USA.gov is the U.S. government's official web portal to all federal, state and local government web resources and services.